Time;durP1;ratioP1;P1;durP2;ratioP2;P2;SDS_P1;SDS_P2;PMS_P1;PMS_P2;Temp;Humidity;BMP_temperature;BMP_pressure;BME280_temperature;BME280_humidity;BME280_pressure;Samples;Min_cycle;Max_cycle;Signal;HPM_P1;HPM_P2
2022/05/12 00:01:20;;;;;;;5.13;2.72;;;;;;;21.74;36.80;98859.97;5127532;28;20047;-70
2022/05/12 00:04:10;;;;;;;5.95;2.50;;;;;;;21.55;39.92;98867.13;5133649;28;20051;-70
2022/05/12 00:07:00;;;;;;;5.70;2.42;;;;;;;21.44;42.97;98867.84;5124064;28;20108;-70
2022/05/12 00:09:51;;;;;;;4.75;2.53;;;;;;;21.23;42.49;98847.41;5137474;28;20061;-70
2022/05/12 00:12:43;;;;;;;8.68;2.63;;;;;;;21.12;41.52;98865.06;5128174;28;20125;-70
2022/05/12 00:15:35;;;;;;;7.07;2.92;;;;;;;20.81;43.07;98857.75;5123361;28;20062;-70
2022/05/12 00:18:26;;;;;;;5.45;2.40;;;;;;;20.77;43.33;98872.69;5155305;28;20054;-70
2022/05/12 00:21:16;;;;;;;9.05;2.63;;;;;;;20.66;43.77;98868.78;5155094;28;20162;-70
2022/05/12 00:24:07;;;;;;;4.38;2.40;;;;;;;20.52;43.85;98870.69;5129620;28;20054;-69
2022/05/12 00:26:57;;;;;;;7.43;2.50;;;;;;;20.45;44.31;98861.75;5135466;28;20085;-70
2022/05/12 00:29:47;;;;;;;4.32;2.90;;;;;;;20.35;45.93;98875.66;5143444;28;20388;-69
2022/05/12 00:32:43;;;;;;;3.00;2.63;;;;;;;20.42;43.39;98884.56;5135567;28;20058;-70
2022/05/12 00:35:33;;;;;;;5.47;3.17;;;;;;;20.45;43.81;98888.69;5127119;28;20113;-70
2022/05/12 00:38:23;;;;;;;9.23;2.50;;;;;;;20.64;43.47;98887.03;5136053;28;20569;-69
2022/05/12 00:41:13;;;;;;;6.32;2.45;;;;;;;20.44;43.73;98883.53;5138799;28;20057;-69
2022/05/12 00:44:08;;;;;;;2.40;2.17;;;;;;;20.17;45.47;98897.84;5134988;28;20046;-69
2022/05/12 00:46:59;;;;;;;5.68;2.45;;;;;;;20.08;45.86;98907.16;5127395;28;20055;-70
2022/05/12 00:49:52;;;;;;;4.28;2.70;;;;;;;19.97;47.44;98896.19;5128584;28;20080;-69
2022/05/12 00:52:43;;;;;;;3.10;2.58;;;;;;;20.06;47.06;98909.22;5133845;28;20055;-69
2022/05/12 00:55:38;;;;;;;5.85;3.00;;;;;;;20.07;45.16;98910.91;5122387;28;20090;-69
2022/05/12 00:58:32;;;;;;;5.30;3.00;;;;;;;20.20;45.35;98915.47;5123255;28;20434;-70
2022/05/12 01:01:23;;;;;;;5.40;2.33;;;;;;;20.21;45.33;98918.97;5123350;28;20462;-69
2022/05/12 01:04:13;;;;;;;7.30;2.30;;;;;;;19.98;45.55;98900.56;5126421;28;20419;-70
2022/05/12 01:07:03;;;;;;;3.58;2.33;;;;;;;19.86;45.77;98925.34;5136894;28;20057;-69
2022/05/12 01:09:54;;;;;;;8.43;2.97;;;;;;;19.66;46.49;98919.94;5129159;28;20049;-69
2022/05/12 01:12:48;;;;;;;5.53;2.85;;;;;;;19.74;45.33;98920.81;5132084;28;20077;-70
2022/05/12 01:15:52;;;;;;;4.78;2.53;;;;;;;19.60;46.29;98912.69;5121261;28;20087;-70
2022/05/12 01:18:42;;;;;;;3.97;3.13;;;;;;;19.61;46.33;98933.16;5129196;28;20054;-69
2022/05/12 01:21:33;;;;;;;5.07;2.95;;;;;;;19.61;47.12;98925.09;5137202;28;20055;-69
2022/05/12 01:24:45;;;;;;;5.00;2.72;;;;;;;19.64;46.56;98934.66;5131660;28;20055;-70
2022/05/12 01:27:35;;;;;;;5.32;2.78;;;;;;;19.50;48.29;98944.50;5130485;28;20513;-70
2022/05/12 01:30:26;;;;;;;3.30;2.70;;;;;;;19.30;46.94;98938.22;5134925;28;20516;-69
2022/05/12 01:33:16;;;;;;;3.83;2.80;;;;;;;19.36;48.84;98954.38;5136442;28;20047;-69
2022/05/12 01:36:07;;;;;;;3.95;2.80;;;;;;;19.31;47.19;98950.66;5136873;28;20074;-70
2022/05/12 01:38:58;;;;;;;7.28;3.10;;;;;;;19.35;47.89;98965.34;5126397;28;20051;-70
2022/05/12 01:41:48;;;;;;;6.68;3.20;;;;;;;19.19;49.02;98953.91;5131050;28;20612;-70
2022/05/12 01:44:40;;;;;;;5.72;3.03;;;;;;;19.24;48.35;98964.91;5139080;28;20091;-70
2022/05/12 01:47:30;;;;;;;10.77;3.28;;;;;;;19.19;50.05;98977.28;5141059;28;20179;-70
2022/05/12 01:50:21;;;;;;;7.25;3.50;;;;;;;19.32;48.52;98980.03;5125384;28;20054;-69
2022/05/12 01:53:11;;;;;;;9.48;3.40;;;;;;;19.15;49.28;98979.53;5141552;28;20149;-69
2022/05/12 01:56:04;;;;;;;5.07;3.30;;;;;;;19.17;49.16;98992.75;5140364;28;20521;-70
2022/05/12 01:58:54;;;;;;;3.70;3.25;;;;;;;19.13;50.39;98991.50;5126802;28;20102;-69
2022/05/12 02:01:47;;;;;;;4.57;2.97;;;;;;;19.06;49.27;98979.91;5141950;28;20124;-69
2022/05/12 02:04:37;;;;;;;4.03;3.20;;;;;;;18.96;51.05;98980.25;5136018;28;20427;-70
2022/05/12 02:07:28;;;;;;;8.20;3.40;;;;;;;18.97;50.79;98992.66;5125702;28;20574;-69
2022/05/12 02:10:22;;;;;;;11.32;3.30;;;;;;;19.05;49.50;99000.56;5130574;28;20051;-70
2022/05/12 02:13:14;;;;;;;5.10;3.03;;;;;;;19.33;48.61;99002.34;5130932;28;20569;-69
2022/05/12 02:16:04;;;;;;;9.13;3.55;;;;;;;19.49;47.54;98986.69;5128147;28;20062;-69
2022/05/12 02:18:55;;;;;;;5.15;2.80;;;;;;;19.71;47.68;99008.13;5144127;28;20058;-69
2022/05/12 02:21:45;;;;;;;6.95;2.55;;;;;;;19.82;47.43;99010.22;5126928;28;20047;-72
2022/05/12 02:24:36;;;;;;;4.05;2.67;;;;;;;19.94;47.05;99005.09;5132633;28;20569;-70
2022/05/12 02:27:26;;;;;;;10.55;2.70;;;;;;;20.11;46.97;99000.13;5129194;28;20058;-69
2022/05/12 02:30:23;;;;;;;6.93;2.85;;;;;;;20.07;46.92;99015.88;5123737;28;20047;-70
2022/05/12 02:33:13;;;;;;;9.25;2.90;;;;;;;20.30;46.74;99025.44;5124009;28;20058;-69
2022/05/12 02:36:03;;;;;;;8.15;2.85;;;;;;;20.26;46.30;99013.41;5140421;28;20074;-69
2022/05/12 02:38:53;;;;;;;6.28;2.50;;;;;;;20.30;46.48;99033.50;5126693;28;20066;-70
2022/05/12 02:41:43;;;;;;;5.30;2.65;;;;;;;20.35;47.37;99039.91;5128584;28;20055;-69
2022/05/12 02:44:34;;;;;;;7.53;3.10;;;;;;;20.36;46.58;99044.28;5126008;28;20082;-70
2022/05/12 02:47:24;;;;;;;3.63;2.80;;;;;;;20.37;46.77;99040.56;5143474;28;20537;-70
2022/05/12 02:50:16;;;;;;;3.75;2.70;;;;;;;20.29;47.65;99042.59;5129844;28;20073;-70
2022/05/12 02:53:06;;;;;;;10.98;3.15;;;;;;;20.36;46.82;99035.34;5144059;28;20073;-70
2022/05/12 02:55:57;;;;;;;5.88;2.63;;;;;;;20.26;47.57;99048.41;5125016;28;20058;-70
2022/05/12 02:58:47;;;;;;;7.55;2.72;;;;;;;20.53;47.31;99055.53;5134572;28;20065;-69
2022/05/12 03:01:38;;;;;;;4.93;2.50;;;;;;;20.45;47.23;99054.84;5143185;28;20130;-71
2022/05/12 03:04:29;;;;;;;8.30;2.50;;;;;;;20.39;47.31;99061.88;5143059;28;20423;-70
2022/05/12 03:07:19;;;;;;;4.55;2.85;;;;;;;20.42;47.35;99072.25;5130628;28;20065;-70
2022/05/12 03:10:10;;;;;;;8.00;2.60;;;;;;;20.27;47.60;99052.78;5124634;28;20494;-70
2022/05/12 03:13:01;;;;;;;4.85;2.70;;;;;;;20.36;47.70;99075.75;5123228;28;20074;-70
2022/05/12 03:15:51;;;;;;;4.00;2.75;;;;;;;20.32;47.93;99066.44;5126068;28;20098;-70
2022/05/12 03:18:42;;;;;;;8.18;2.50;;;;;;;20.17;47.83;99053.16;5134711;28;20126;-70
2022/05/12 03:21:32;;;;;;;5.78;3.00;;;;;;;20.20;47.90;99074.31;5133111;28;20517;-70
2022/05/12 03:24:22;;;;;;;5.25;2.35;;;;;;;20.47;47.71;99075.16;5128523;28;20058;-70
2022/05/12 03:27:14;;;;;;;4.25;2.33;;;;;;;20.50;47.41;99084.69;5124665;28;20114;-70
2022/05/12 03:30:07;;;;;;;7.32;2.42;;;;;;;20.28;47.64;99062.50;5125133;28;20054;-70
2022/05/12 03:32:57;;;;;;;6.60;2.50;;;;;;;20.39;47.51;99084.25;5136967;28;20062;-70
2022/05/12 03:35:49;;;;;;;8.25;2.00;;;;;;;20.42;47.71;99085.72;5140436;28;20053;-70
2022/05/12 03:38:39;;;;;;;7.95;2.33;;;;;;;20.47;48.04;99096.72;5144486;28;20098;-70
2022/05/12 03:41:31;;;;;;;2.75;2.15;;;;;;;20.68;47.10;99093.03;5127716;28;20058;-70
2022/05/12 03:47:33;;;;;;;3.33;2.28;;;;;;;20.21;48.74;99092.09;5135400;28;20177;-70
2022/05/12 03:50:26;;;;;;;3.73;2.10;;;;;;;20.30;48.74;99112.44;5129401;28;20132;-70
2022/05/12 03:53:16;;;;;;;4.78;1.83;;;;;;;20.32;48.51;99117.59;5128007;28;20669;-70
2022/05/12 03:56:08;;;;;;;4.63;2.03;;;;;;;20.29;48.58;99116.13;5123201;28;20054;-70
2022/05/12 03:58:58;;;;;;;3.42;1.83;;;;;;;20.21;49.52;99123.59;5123116;28;20521;-70
2022/05/12 04:01:48;;;;;;;8.40;2.00;;;;;;;20.13;49.96;99116.50;5140750;28;20134;-71
2022/05/12 04:04:38;;;;;;;6.47;1.77;;;;;;;20.00;49.96;99127.22;5125023;28;20445;-72
2022/05/12 04:07:28;;;;;;;2.60;1.77;;;;;;;20.00;49.53;99127.22;5128774;28;20055;-71
2022/05/12 04:10:20;;;;;;;3.38;1.77;;;;;;;19.89;50.51;99132.16;5122539;28;20521;-69
2022/05/12 04:13:11;;;;;;;3.60;1.80;;;;;;;19.91;50.80;99145.41;5134558;28;20421;-68
2022/05/12 04:16:01;;;;;;;5.10;2.03;;;;;;;19.94;50.15;99155.78;5128367;28;20054;-68
2022/05/12 04:18:51;;;;;;;3.72;2.55;;;;;;;19.74;50.40;99133.34;5140930;28;20054;-68
2022/05/12 04:21:42;;;;;;;4.65;2.25;;;;;;;19.85;51.83;99151.59;5122450;28;20047;-73
2022/05/12 04:24:32;;;;;;;4.10;2.25;;;;;;;19.79;51.50;99163.16;5124445;28;20047;-70
2022/05/12 04:27:22;;;;;;;2.70;1.70;;;;;;;19.65;51.00;99173.84;5132799;28;20112;-70
2022/05/12 04:30:15;;;;;;;5.25;1.80;;;;;;;19.83;50.65;99161.72;5122170;29;20414;-72
2022/05/12 04:36:15;;;;;;;6.43;2.30;;;;;;;20.07;49.44;99177.38;5127135;28;20055;-71
2022/05/12 04:39:06;;;;;;;6.70;1.65;;;;;;;19.98;50.45;99173.19;5140832;28;20117;-71
2022/05/12 04:41:56;;;;;;;10.85;1.80;;;;;;;20.04;50.19;99185.03;5139987;28;20061;-72
2022/05/12 04:44:47;;;;;;;7.35;2.10;;;;;;;19.80;50.74;99187.19;5145663;28;20524;-74
2022/05/12 04:47:39;;;;;;;3.58;1.70;;;;;;;19.96;50.61;99194.06;5132332;28;20099;-71
2022/05/12 04:50:32;;;;;;;2.22;1.70;;;;;;;19.96;51.07;99199.47;5141450;28;20054;-72
2022/05/12 04:53:24;;;;;;;4.50;1.95;;;;;;;20.07;50.71;99198.91;5127686;28;20066;-71
2022/05/12 04:56:15;;;;;;;7.20;2.00;;;;;;;19.91;50.87;99200.06;5126361;28;20066;-72
2022/05/12 04:59:06;;;;;;;4.65;1.80;;;;;;;19.96;51.52;99207.53;5122089;28;20062;-73
2022/05/12 05:01:57;;;;;;;3.55;1.80;;;;;;;19.85;51.62;99216.19;5136687;28;20141;-72
2022/05/12 05:04:48;;;;;;;5.80;1.80;;;;;;;19.97;51.85;99217.28;5133009;28;20066;-72
2022/05/12 05:07:39;;;;;;;6.25;1.90;;;;;;;19.88;52.20;99229.25;5134843;28;20711;-72
2022/05/12 05:10:31;;;;;;;6.40;1.63;;;;;;;19.98;51.77;99231.56;5134155;28;20688;-72
2022/05/12 05:13:22;;;;;;;5.68;1.77;;;;;;;20.08;51.31;99232.88;5129048;28;20525;-72
2022/05/12 05:16:13;;;;;;;5.97;1.90;;;;;;;20.09;51.03;99239.91;5128814;28;20058;-71
2022/05/12 05:19:03;;;;;;;15.48;2.20;;;;;;;20.11;52.04;99243.22;5138468;28;20059;-70
2022/05/12 05:21:54;;;;;;;3.85;1.90;;;;;;;20.23;51.00;99239.97;5131010;28;20473;-72
2022/05/12 05:24:44;;;;;;;3.80;1.98;;;;;;;20.41;51.66;99243.78;5130460;28;20149;-72
2022/05/12 05:27:37;;;;;;;5.07;1.90;;;;;;;20.38;52.12;99259.50;5130052;28;20055;-72
2022/05/12 05:30:28;;;;;;;3.72;1.52;;;;;;;20.36;50.61;99256.19;5131414;28;20051;-72
2022/05/12 05:33:19;;;;;;;5.07;1.60;;;;;;;20.40;51.18;99269.06;5141782;28;20498;-71
2022/05/12 05:36:09;;;;;;;3.75;1.20;;;;;;;20.59;50.50;99280.13;5125326;28;20508;-71
2022/05/12 05:39:00;;;;;;;3.47;1.60;;;;;;;20.55;51.30;99278.88;5130665;28;20118;-71
2022/05/12 05:41:52;;;;;;;5.05;1.52;;;;;;;20.58;51.55;99286.56;5135363;28;20553;-72
2022/05/12 05:44:43;;;;;;;6.95;1.63;;;;;;;20.47;50.46;99290.63;5130431;28;20060;-72
2022/05/12 05:47:34;;;;;;;3.50;1.40;;;;;;;20.55;51.27;99290.47;5142404;28;20113;-71
2022/05/12 05:50:29;;;;;;;4.88;1.58;;;;;;;20.79;50.83;99293.66;5146049;28;20066;-72
2022/05/12 05:53:25;;;;;;;4.78;1.48;;;;;;;20.95;50.50;99304.09;5136387;28;20066;-72
2022/05/12 05:56:17;;;;;;;3.95;1.38;;;;;;;20.93;52.00;99311.56;5129928;28;20166;-72
2022/05/12 05:59:07;;;;;;;1.90;1.08;;;;;;;20.97;50.24;99296.66;5129661;28;20121;-72
2022/05/12 06:01:57;;;;;;;4.40;1.35;;;;;;;20.49;51.68;99320.88;5137455;28;20421;-73
2022/05/12 06:04:52;;;;;;;3.90;1.50;;;;;;;20.78;52.21;99318.97;5136646;28;20092;-71
2022/05/12 06:07:42;;;;;;;5.40;1.30;;;;;;;21.16;50.69;99311.22;5129773;28;20059;-71
2022/05/12 06:10:32;;;;;;;3.72;1.50;;;;;;;21.06;50.13;99317.00;5131409;28;20043;-70
2022/05/12 06:13:22;;;;;;;2.47;1.27;;;;;;;20.76;50.42;99321.88;5129670;28;20109;-73
2022/05/12 06:16:13;;;;;;;9.30;1.40;;;;;;;20.86;50.47;99324.16;5125493;28;20074;-70
2022/05/12 06:19:04;;;;;;;2.17;1.10;;;;;;;21.41;50.73;99327.66;5135291;28;20101;-70
2022/05/12 06:21:54;;;;;;;3.53;1.25;;;;;;;21.57;49.53;99334.53;5132629;28;20525;-70
2022/05/12 06:24:47;;;;;;;5.18;1.40;;;;;;;20.87;50.90;99344.72;5141143;28;20351;-72
2022/05/12 06:27:38;;;;;;;1.67;1.00;;;;;;;21.65;50.13;99341.56;5125754;28;20145;-71
2022/05/12 06:30:29;;;;;;;2.83;1.30;;;;;;;21.68;50.68;99350.09;5127492;28;20433;-70
2022/05/12 06:33:19;;;;;;;10.63;1.42;;;;;;;21.47;50.16;99351.13;5128394;28;20114;-71
2022/05/12 06:36:10;;;;;;;8.30;1.55;;;;;;;20.87;50.84;99350.94;5126017;28;20043;-70
2022/05/12 06:39:00;;;;;;;3.80;1.48;;;;;;;21.62;50.09;99342.81;5125190;28;20502;-70
2022/05/12 06:41:50;;;;;;;3.47;1.33;;;;;;;21.67;50.32;99361.09;5140381;28;20133;-70
2022/05/12 06:44:44;;;;;;;2.72;1.25;;;;;;;21.69;49.97;99359.00;5137452;28;20066;-70
2022/05/12 06:47:34;;;;;;;8.32;1.23;;;;;;;21.75;49.92;99363.59;5133203;28;20051;-70
2022/05/12 06:50:28;;;;;;;2.55;1.20;;;;;;;21.56;50.62;99365.25;5133709;28;20559;-70
2022/05/12 06:53:18;;;;;;;5.20;1.20;;;;;;;21.96;50.04;99368.78;5144740;28;20058;-70
2022/05/12 06:56:09;;;;;;;4.25;1.30;;;;;;;21.95;50.34;99375.22;5125582;28;20135;-70
2022/05/12 06:58:59;;;;;;;2.60;1.10;;;;;;;20.92;51.59;99376.44;5143641;28;20050;-70
2022/05/12 07:01:50;;;;;;;5.13;1.52;;;;;;;21.08;51.44;99370.69;5125143;28;20047;-70
2022/05/12 07:04:41;;;;;;;8.88;1.20;;;;;;;21.84;49.45;99383.13;5142393;28;20422;-71
2022/05/12 07:07:32;;;;;;;6.13;1.50;;;;;;;21.69;50.13;99377.91;5124597;28;20128;-70
2022/05/12 07:10:25;;;;;;;7.95;1.60;;;;;;;22.00;48.73;99364.63;5133614;28;20055;-71
2022/05/12 07:13:20;;;;;;;4.20;1.40;;;;;;;22.13;48.39;99381.88;5144968;28;20054;-72
2022/05/12 07:16:10;;;;;;;4.82;1.30;;;;;;;21.50;49.64;99377.69;5135931;28;20524;-72
2022/05/12 07:19:07;;;;;;;5.65;1.35;;;;;;;21.38;50.22;99381.19;5137563;28;20592;-71
2022/05/12 07:28:15;;;;;;;4.40;1.38;;;;;;;20.55;52.61;99400.94;5131010;28;20067;-71
2022/05/12 07:31:09;;;;;;;3.72;1.13;;;;;;;20.17;52.92;99403.16;5126751;28;20047;-71
2022/05/12 07:34:00;;;;;;;8.90;1.65;;;;;;;21.04;51.50;99404.50;5139561;28;20524;-72
2022/05/12 07:36:52;;;;;;;6.20;1.30;;;;;;;21.65;50.41;99406.34;5124084;28;20054;-72
2022/05/12 07:39:42;;;;;;;1.90;1.10;;;;;;;21.84;49.80;99410.94;5123426;28;20442;-71
2022/05/12 07:42:32;;;;;;;5.00;1.48;;;;;;;22.08;48.87;99409.47;5135584;28;20073;-73
2022/05/12 07:45:22;;;;;;;5.68;1.50;;;;;;;21.81;50.13;99409.47;5139160;28;20051;-72
2022/05/12 07:48:12;;;;;;;4.70;1.40;;;;;;;22.12;49.81;99412.59;5122608;28;20055;-71
2022/05/12 07:51:03;;;;;;;5.18;1.67;;;;;;;21.44;50.34;99400.09;5127370;28;20059;-71
2022/05/12 07:53:53;;;;;;;20.65;2.28;;;;;;;21.66;50.61;99410.72;5135921;28;20058;-71
2022/05/12 07:56:44;;;;;;;2.35;1.20;;;;;;;21.36;50.87;99405.69;5125342;28;20054;-71
2022/05/12 07:59:34;;;;;;;5.57;1.55;;;;;;;22.24;50.16;99406.38;5127912;28;20149;-71
2022/05/12 08:02:26;;;;;;;6.05;1.40;;;;;;;22.30;48.66;99401.19;5124284;28;20102;-74
2022/05/12 08:05:17;;;;;;;4.60;1.27;;;;;;;23.00;46.92;99410.38;5124107;28;20582;-71
2022/05/12 08:08:09;;;;;;;2.72;1.45;;;;;;;25.24;43.94;99414.19;5142000;28;20135;-71
2022/05/12 08:10:59;;;;;;;3.25;1.42;;;;;;;24.67;43.75;99416.31;5136939;28;20137;-72
2022/05/12 08:13:49;;;;;;;3.47;1.20;;;;;;;25.66;44.47;99413.38;5132790;28;20504;-72
2022/05/12 08:16:39;;;;;;;4.95;1.20;;;;;;;27.01;39.23;99414.41;5132308;28;20506;-72
2022/05/12 08:19:29;;;;;;;4.10;1.60;;;;;;;25.35;43.94;99411.75;5122630;28;20425;-72
2022/05/12 08:22:19;;;;;;;7.10;1.50;;;;;;;25.48;44.67;99411.56;5136118;28;20080;-71
2022/05/12 08:25:11;;;;;;;3.85;1.20;;;;;;;25.63;43.06;99421.97;5129677;28;20059;-70
2022/05/12 08:28:03;;;;;;;1.42;1.13;;;;;;;26.61;40.18;99407.84;5143203;28;20051;-72
2022/05/12 08:30:54;;;;;;;3.85;1.00;;;;;;;26.51;40.39;99407.63;5122236;28;20043;-71
2022/05/12 08:33:44;;;;;;;10.70;1.50;;;;;;;25.74;41.50;99408.44;5135614;28;20528;-71
2022/05/12 08:36:35;;;;;;;5.28;1.40;;;;;;;26.51;40.49;99409.53;5129277;28;20062;-71
2022/05/12 08:39:25;;;;;;;5.97;1.65;;;;;;;26.90;40.50;99411.47;5132853;28;20093;-71
2022/05/12 08:42:38;;;;;;;3.33;1.25;;;;;;;26.51;41.36;99423.13;5127460;28;20153;-71
2022/05/12 08:45:28;;;;;;;3.30;1.30;;;;;;;27.19;40.42;99408.00;5137978;28;20498;-71
2022/05/12 08:48:20;;;;;;;4.03;1.40;;;;;;;26.74;38.59;99420.38;5127143;28;20081;-71
2022/05/12 08:51:15;;;;;;;2.65;1.42;;;;;;;25.72;42.91;99428.75;5125239;28;20058;-72
2022/05/12 08:54:14;;;;;;;4.43;1.20;;;;;;;25.73;41.78;99430.44;5125682;28;20055;-71
2022/05/12 08:57:07;;;;;;;6.10;1.70;;;;;;;25.06;43.24;99430.44;5145283;28;20476;-71
2022/05/12 09:00:00;;;;;;;5.32;1.52;;;;;;;24.80;43.15;99427.00;5137823;28;20058;-71
2022/05/12 09:03:09;;;;;;;3.55;1.80;;;;;;;26.32;40.19;99444.13;5125720;28;20054;-71
2022/05/12 09:06:02;;;;;;;6.18;1.60;;;;;;;27.47;40.13;99423.50;5125531;28;20238;-71
2022/05/12 09:09:01;;;;;;;7.43;1.60;;;;;;;26.18;40.27;99432.66;5127198;28;20157;-71
2022/05/12 09:12:16;;;;;;;5.13;1.50;;;;;;;25.77;42.89;99426.19;5128227;28;20069;-72
2022/05/12 09:15:18;;;;;;;3.17;1.58;;;;;;;24.57;44.19;99422.25;5139961;28;20113;-71
2022/05/12 09:18:17;;;;;;;5.10;1.38;;;;;;;25.58;42.56;99433.56;5150577;28;20144;-70
2022/05/12 09:21:10;;;;;;;3.78;1.33;;;;;;;26.21;42.72;99405.81;5139940;28;20104;-70
2022/05/12 09:24:03;;;;;;;3.80;1.65;;;;;;;25.63;40.87;99430.97;5123786;28;20059;-70
2022/05/12 09:27:08;;;;;;;5.50;1.80;;;;;;;26.60;41.18;99408.94;5137312;28;20047;-70
2022/05/12 09:29:59;;;;;;;4.18;1.77;;;;;;;25.64;42.56;99420.94;5130663;28;20070;-72
2022/05/12 09:32:58;;;;;;;7.07;1.90;;;;;;;24.69;44.99;99418.78;5137175;28;20061;-72
2022/05/12 09:35:57;;;;;;;4.60;1.88;;;;;;;25.66;44.00;99422.38;5120431;28;20079;-72
2022/05/12 09:38:48;;;;;;;4.95;1.77;;;;;;;25.83;43.13;99419.00;5140373;28;20142;-71
2022/05/12 09:41:42;;;;;;;8.52;1.77;;;;;;;25.20;42.30;99423.00;5182270;23;20060;-81
2022/05/12 09:44:33;;;;;;;8.73;1.98;;;;;;;27.41;42.62;99426.13;5194009;28;20071;-81
2022/05/12 09:47:25;;;;;;;3.53;1.85;;;;;;;25.81;42.29;99432.00;5186516;28;20056;-83
2022/05/12 09:50:21;;;;;;;6.70;2.00;;;;;;;26.57;40.77;99379.47;5208036;28;20244;-83
2022/05/12 09:53:13;;;;;;;9.32;1.80;;;;;;;27.47;41.03;99407.97;5180394;28;20073;-86
2022/05/12 09:56:07;;;;;;;4.15;2.45;;;;;;;26.54;42.08;99411.78;5187869;28;20054;-84
2022/05/12 09:59:06;;;;;;;4.32;1.98;;;;;;;26.07;39.44;99388.09;5206928;28;20053;-84
2022/05/12 10:02:01;;;;;;;4.25;2.00;;;;;;;26.70;38.70;99394.72;5208229;28;20156;-84
2022/05/12 10:08:30;;;;;;;3.90;2.00;;;;;;;27.29;42.10;99397.31;5202005;28;20060;-84
2022/05/12 10:11:20;;;;;;;6.22;1.98;;;;;;;26.89;41.70;99381.78;5194458;28;20487;-84
2022/05/12 10:14:38;;;;;;;9.38;2.17;;;;;;;25.97;41.14;99407.69;5189355;28;20125;-84
2022/05/12 10:17:34;;;;;;;7.28;2.00;;;;;;;25.91;42.00;99395.03;5184221;28;20135;-83
2022/05/12 10:20:31;;;;;;;5.20;2.22;;;;;;;27.34;38.80;99387.31;5205570;28;20060;-84
2022/05/12 10:23:59;;;;;;;3.17;2.05;;;;;;;26.04;42.47;99372.28;5180122;28;20143;-83
2022/05/12 10:26:56;;;;;;;5.88;1.83;;;;;;;25.59;41.51;99358.34;5187323;28;20520;-84
2022/05/12 10:29:55;;;;;;;4.78;1.80;;;;;;;27.95;40.38;99390.34;5184002;28;20482;-85
2022/05/12 10:33:13;;;;;;;5.00;1.88;;;;;;;26.80;40.66;99364.19;5193174;28;20508;-85
2022/05/12 10:36:33;;;;;;;4.43;2.40;;;;;;;25.77;40.55;99383.53;5186462;28;20084;-84
2022/05/12 10:39:44;;;;;;;5.28;2.30;;;;;;;27.06;42.86;99376.41;5186446;28;20045;-85
2022/05/12 10:43:00;;;;;;;4.15;2.00;;;;;;;26.94;41.51;99376.44;5202531;28;20416;-86
2022/05/12 10:46:18;;;;;;;5.32;1.90;;;;;;;27.12;39.75;99364.56;5189464;28;20061;-85
2022/05/12 10:49:22;;;;;;;2.63;1.77;;;;;;;26.15;41.26;99367.88;5186808;28;20061;-84
2022/05/12 10:52:31;;;;;;;5.30;2.20;;;;;;;27.22;40.12;99356.63;5200943;28;20076;-83
2022/05/12 10:55:58;;;;;;;5.07;2.03;;;;;;;26.38;41.73;99351.56;5199874;28;20116;-84
2022/05/12 10:59:21;;;;;;;4.65;2.20;;;;;;;26.98;41.38;99346.84;5207377;28;20045;-84
2022/05/12 11:02:15;;;;;;;6.32;2.10;;;;;;;26.39;39.30;99331.50;5180912;28;20049;-84
2022/05/12 11:05:33;;;;;;;5.63;2.20;;;;;;;26.08;40.10;99346.28;5197717;28;20053;-82
2022/05/12 11:08:34;;;;;;;6.20;2.05;;;;;;;25.37;42.37;99345.31;5153188;28;20682;-84
2022/05/12 11:11:33;;;;;;;6.03;2.05;;;;;;;26.02;40.22;99322.75;5190862;28;20054;-83
2022/05/12 11:14:41;;;;;;;6.60;2.10;;;;;;;26.98;40.21;99338.69;5188632;28;20160;-83
2022/05/12 11:17:39;;;;;;;3.70;2.50;;;;;;;26.10;39.00;99319.69;5199603;28;20187;-84
2022/05/12 11:20:36;;;;;;;4.45;2.08;;;;;;;26.36;41.24;99328.44;5187139;28;20064;-86
2022/05/12 11:23:47;;;;;;;7.10;2.15;;;;;;;26.21;42.93;99331.63;5198860;28;20135;-85
2022/05/12 11:27:06;;;;;;;5.43;1.92;;;;;;;26.82;41.38;99330.25;5180534;28;20060;-84
2022/05/12 11:30:05;;;;;;;7.57;1.90;;;;;;;26.55;40.46;99331.84;5183719;28;20520;-84
2022/05/12 11:33:02;;;;;;;3.15;1.98;;;;;;;26.96;42.91;99327.25;5189340;28;20053;-84
2022/05/12 11:35:54;;;;;;;4.60;1.80;;;;;;;27.31;39.67;99305.31;5184667;28;20072;-84
2022/05/12 11:38:48;;;;;;;5.47;2.30;;;;;;;26.78;40.86;99306.47;5190391;28;20605;-84
2022/05/12 11:41:42;;;;;;;6.93;2.13;;;;;;;26.46;39.85;99293.28;5178613;22;21535;-88
2022/05/12 11:44:39;;;;;;;5.40;1.77;;;;;;;25.75;41.46;99314.22;5130200;28;20054;-89
2022/05/12 11:47:40;;;;;;;9.48;2.13;;;;;;;26.23;40.89;99322.16;5131100;28;20114;-88
2022/05/12 11:50:57;;;;;;;5.75;1.95;;;;;;;26.21;40.36;99313.41;5156618;28;20057;-87
2022/05/12 11:57:36;;;;;;;9.32;2.17;;;;;;;26.64;39.91;99297.75;5114294;29;20417;-71
2022/05/12 12:00:33;;;;;;;5.80;2.00;;;;;;;26.29;40.57;99311.38;5136234;28;20524;-71
2022/05/12 12:03:24;;;;;;;2.88;1.88;;;;;;;26.63;39.23;99312.44;5130750;28;20053;-71
2022/05/12 12:06:43;;;;;;;8.77;2.33;;;;;;;26.43;39.86;99308.19;5121352;28;20051;-71
2022/05/12 12:09:36;;;;;;;6.95;2.45;;;;;;;26.29;39.73;99308.66;5117146;29;20498;-71
2022/05/12 12:12:44;;;;;;;3.70;1.83;;;;;;;25.64;42.10;99299.56;5117794;29;20051;-69
2022/05/12 12:15:39;;;;;;;10.15;2.50;;;;;;;24.95;43.17;99285.56;5118473;29;20198;-71
2022/05/12 12:18:29;;;;;;;7.85;2.20;;;;;;;25.85;43.04;99300.06;5119610;29;20043;-70
2022/05/12 12:21:36;;;;;;;4.20;2.00;;;;;;;26.47;39.86;99284.06;5120264;29;20066;-70
2022/05/12 12:24:37;;;;;;;5.90;2.50;;;;;;;26.93;40.04;99304.88;5119388;29;20113;-70
2022/05/12 12:27:32;;;;;;;9.52;2.40;;;;;;;26.17;39.65;99298.66;5121688;29;20051;-71
2022/05/12 12:30:30;;;;;;;4.28;2.28;;;;;;;24.84;42.10;99295.31;5121420;29;20420;-71
2022/05/12 12:33:37;;;;;;;8.25;2.63;;;;;;;25.45;42.71;99281.72;5108954;29;20043;-71
2022/05/12 12:36:28;;;;;;;5.82;2.50;;;;;;;26.10;40.63;99297.13;5121974;29;20055;-70
2022/05/12 12:39:40;;;;;;;6.80;2.47;;;;;;;25.68;41.36;99295.31;5108940;29;20051;-71
2022/05/12 12:42:41;;;;;;;3.25;2.30;;;;;;;25.82;41.36;99282.34;5120287;29;20437;-69
2022/05/12 12:45:32;;;;;;;2.97;2.30;;;;;;;26.67;40.27;99284.50;5121337;29;20062;-70
2022/05/12 12:48:34;;;;;;;5.68;2.30;;;;;;;25.95;41.26;99275.88;5121352;29;20117;-70
2022/05/12 12:51:35;;;;;;;7.65;2.60;;;;;;;26.79;39.99;99275.47;5120789;29;20522;-70
2022/05/12 12:57:48;;;;;;;6.25;2.47;;;;;;;25.16;41.43;99278.81;5121064;29;20408;-70
2022/05/12 13:00:38;;;;;;;5.57;2.15;;;;;;;26.19;40.34;99268.50;5133653;28;20062;-70
2022/05/12 13:03:31;;;;;;;7.78;2.40;;;;;;;26.45;40.06;99262.53;5121092;29;20062;-70
2022/05/12 13:06:36;;;;;;;8.82;2.13;;;;;;;27.02;40.69;99269.94;5120980;29;20581;-71
2022/05/12 13:09:30;;;;;;;5.97;2.30;;;;;;;25.29;41.43;99261.50;5121435;29;20145;-71
2022/05/12 13:12:25;;;;;;;4.75;2.40;;;;;;;26.00;41.44;99262.41;5119315;29;20058;-71
2022/05/12 13:15:18;;;;;;;5.18;2.50;;;;;;;25.90;39.72;99262.19;5120529;29;20137;-70
2022/05/12 13:18:18;;;;;;;7.07;2.85;;;;;;;25.71;39.69;99269.59;5124969;28;20059;-70
2022/05/12 13:21:43;;;;;;;10.18;2.53;;;;;;;25.76;40.85;99262.38;5124625;29;20055;-70
2022/05/12 13:24:36;;;;;;;5.30;2.38;;;;;;;25.29;42.92;99275.88;5120328;29;20141;-69
2022/05/12 13:27:37;;;;;;;5.75;2.50;;;;;;;26.54;41.37;99260.31;5124955;28;20137;-70
2022/05/12 13:30:46;;;;;;;7.00;2.30;;;;;;;26.02;41.69;99247.50;5122793;28;20764;-69
2022/05/12 13:33:36;;;;;;;7.57;2.55;;;;;;;26.59;40.70;99254.97;5125146;29;20054;-69
2022/05/12 13:36:31;;;;;;;8.95;2.90;;;;;;;25.98;41.71;99245.50;5136733;28;20589;-69
2022/05/12 13:39:50;;;;;;;5.32;2.42;;;;;;;26.67;41.65;99240.16;5125725;29;20062;-69
2022/05/12 13:42:43;;;;;;;5.13;2.85;;;;;;;25.93;41.36;99218.25;5111832;29;20134;-70
2022/05/12 13:45:35;;;;;;;5.30;2.33;;;;;;;25.82;41.33;99211.72;5137051;28;20074;-69
2022/05/12 13:48:27;;;;;;;7.38;2.50;;;;;;;25.16;42.14;99234.56;5097482;28;20141;-69
2022/05/12 13:51:48;;;;;;;6.53;2.65;;;;;;;25.26;42.26;99241.06;5123917;29;20105;-70
2022/05/12 13:54:55;;;;;;;6.60;2.78;;;;;;;26.08;41.77;99224.00;5114674;29;20062;-69
2022/05/12 13:58:06;;;;;;;4.78;2.80;;;;;;;26.34;41.64;99208.22;5124289;29;20055;-70
2022/05/12 14:00:56;;;;;;;10.68;2.78;;;;;;;25.98;43.40;99226.50;5124093;29;20145;-70
2022/05/12 14:04:03;;;;;;;5.03;2.80;;;;;;;26.47;41.93;99224.25;5123868;29;20051;-70
2022/05/12 14:06:56;;;;;;;4.82;2.70;;;;;;;26.63;39.96;99215.34;5124614;29;20138;-70